Time;durP1;ratioP1;P1;durP2;ratioP2;P2;SDS_P1;SDS_P2;PMS_P1;PMS_P2;Temp;Humidity;BMP_temperature;BMP_pressure;BME280_temperature;BME280_humidity;BME280_pressure;Samples;Min_cycle;Max_cycle;Signal;HPM_P1;HPM_P2
2023/12/16 00:02:32;;;;;;;5.83;3.87;;;;;;;7.74;61.20;102649.75;5079742;28;20048;-84
2023/12/16 00:05:22;;;;;;;8.68;4.75;;;;;;;7.77;62.44;102653.88;5082978;28;20073;-84
2023/12/16 00:08:18;;;;;;;8.57;5.30;;;;;;;7.96;61.46;102649.81;5081074;28;20048;-84
2023/12/16 00:11:10;;;;;;;7.60;5.40;;;;;;;7.89;60.70;102649.97;5078657;28;20040;-84
2023/12/16 00:14:05;;;;;;;8.00;5.50;;;;;;;7.68;61.15;102650.75;5080105;28;20266;-84
2023/12/16 00:16:52;;;;;;;9.57;5.25;;;;;;;7.65;61.22;102654.78;5079776;28;20043;-83
2023/12/16 00:19:42;;;;;;;9.07;5.15;;;;;;;7.56;60.69;102661.69;5083696;28;20055;-84
2023/12/16 00:22:38;;;;;;;6.20;4.13;;;;;;;7.52;60.84;102654.28;5081233;28;20140;-84
2023/12/16 00:25:32;;;;;;;8.65;4.97;;;;;;;7.54;61.40;102654.88;5078989;28;20512;-83
2023/12/16 00:28:24;;;;;;;8.07;4.27;;;;;;;7.60;61.41;102645.78;5082634;28;20047;-84
2023/12/16 00:31:19;;;;;;;6.80;4.25;;;;;;;7.88;61.29;102655.63;5080248;28;20087;-84
2023/12/16 00:34:14;;;;;;;6.70;3.58;;;;;;;7.64;60.56;102661.28;5078479;28;20056;-84
2023/12/16 00:37:06;;;;;;;7.05;4.50;;;;;;;7.79;60.84;102655.25;5082532;28;20520;-84
2023/12/16 00:40:00;;;;;;;10.23;5.00;;;;;;;8.09;61.70;102660.28;5080709;28;20048;-85
2023/12/16 00:42:55;;;;;;;11.43;4.57;;;;;;;8.40;61.72;102653.38;5084348;28;20051;-84
2023/12/16 00:45:47;;;;;;;6.55;4.22;;;;;;;8.08;58.32;102658.63;5081079;28;20051;-84
2023/12/16 00:48:42;;;;;;;6.78;3.88;;;;;;;7.69;59.14;102655.94;5079874;28;20130;-84
2023/12/16 00:51:37;;;;;;;9.68;4.55;;;;;;;7.25;59.75;102659.56;5083263;28;20047;-84
2023/12/16 00:54:31;;;;;;;10.85;3.63;;;;;;;7.07;60.58;102670.59;5078925;28;20055;-84
2023/12/16 00:57:25;;;;;;;8.00;4.15;;;;;;;6.85;61.40;102679.41;5082991;28;20054;-84
2023/12/16 01:00:20;;;;;;;6.22;3.20;;;;;;;7.01;61.36;102677.00;5080500;28;20548;-84
2023/12/16 01:03:12;;;;;;;13.70;3.80;;;;;;;7.00;61.03;102678.06;5078331;28;20043;-85
2023/12/16 01:06:09;;;;;;;5.63;3.25;;;;;;;7.12;61.31;102676.91;5081512;28;20071;-84
2023/12/16 01:09:02;;;;;;;13.35;5.75;;;;;;;7.16;60.98;102675.34;5079254;28;20043;-84
2023/12/16 01:11:54;;;;;;;20.45;11.65;;;;;;;7.09;60.51;102682.00;5083790;28;20516;-84
2023/12/16 01:14:48;;;;;;;14.85;7.88;;;;;;;6.87;60.71;102689.97;5075850;28;20040;-84
2023/12/16 01:17:43;;;;;;;6.50;3.88;;;;;;;6.65;61.73;102687.13;5076051;28;20427;-84
2023/12/16 01:20:37;;;;;;;14.67;7.83;;;;;;;6.62;62.11;102684.91;5081095;28;20069;-83
2023/12/16 01:23:30;;;;;;;25.73;13.43;;;;;;;6.61;61.54;102687.84;5079038;28;20039;-84
2023/12/16 01:26:22;;;;;;;21.83;13.35;;;;;;;6.76;61.54;102686.25;5077003;28;20270;-85
2023/12/16 01:29:12;;;;;;;38.50;19.90;;;;;;;6.75;60.74;102689.22;5080057;28;20051;-84
2023/12/16 01:32:03;;;;;;;31.35;15.20;;;;;;;6.55;61.70;102692.34;5078412;28;20044;-84
2023/12/16 01:34:58;;;;;;;16.20;8.52;;;;;;;6.53;61.24;102701.75;5081653;28;20409;-84
2023/12/16 01:37:53;;;;;;;9.93;4.73;;;;;;;6.64;61.03;102690.91;5072763;28;20067;-84
2023/12/16 01:40:50;;;;;;;6.43;4.28;;;;;;;6.47;61.24;102703.50;5073215;28;20289;-84
2023/12/16 01:43:40;;;;;;;5.20;2.67;;;;;;;6.45;61.72;102708.31;5079007;28;20421;-84
2023/12/16 01:46:35;;;;;;;6.80;3.08;;;;;;;6.36;62.34;102709.75;5078347;28;20047;-84
2023/12/16 01:49:25;;;;;;;5.32;2.58;;;;;;;6.42;61.71;102706.94;5082136;28;20048;-84
2023/12/16 01:52:19;;;;;;;5.70;3.05;;;;;;;6.47;62.45;102694.59;5080116;28;20048;-84
2023/12/16 01:55:12;;;;;;;9.13;2.67;;;;;;;6.52;61.96;102698.22;5077879;28;20048;-84
2023/12/16 01:58:07;;;;;;;5.75;2.88;;;;;;;6.60;62.10;102681.63;5073281;28;20044;-84
2023/12/16 02:00:59;;;;;;;;;;;;;;;6.68;62.01;102673.13;5079529;28;20040;-83
2023/12/16 02:03:56;;;;;;;14.80;2.65;;;;;;;6.67;61.54;102682.31;5079568;28;19916;-83
2023/12/16 02:06:51;;;;;;;6.45;2.70;;;;;;;6.49;61.67;102687.88;5099943;28;20095;-84
2023/12/16 02:09:45;;;;;;;4.78;2.58;;;;;;;6.59;62.13;102685.41;5096279;28;20051;-84
2023/12/16 02:12:37;;;;;;;6.28;4.28;;;;;;;6.32;61.67;102692.38;5100503;28;20043;-84
2023/12/16 02:15:32;;;;;;;4.70;2.65;;;;;;;6.28;62.37;102696.63;5090770;28;20047;-84
2023/12/16 02:18:26;;;;;;;7.07;2.65;;;;;;;6.16;63.14;102698.50;5076261;28;20504;-84
2023/12/16 02:21:21;;;;;;;2.63;1.53;;;;;;;6.14;62.43;102706.88;5080039;28;20051;-84
2023/12/16 02:24:13;;;;;;;2.05;1.45;;;;;;;6.11;63.09;102712.72;5078081;28;20047;-84
2023/12/16 02:27:05;;;;;;;4.13;2.40;;;;;;;6.25;62.39;102719.53;5080765;28;20063;-84
2023/12/16 02:30:00;;;;;;;6.30;2.42;;;;;;;6.04;63.29;102719.31;5078030;28;20520;-84
2023/12/16 02:32:55;;;;;;;4.22;1.90;;;;;;;6.11;63.06;102712.72;5076325;28;20147;-83
2023/12/16 02:35:49;;;;;;;4.35;1.85;;;;;;;6.03;63.58;102723.06;5079470;28;20052;-84
2023/12/16 02:38:44;;;;;;;2.65;1.88;;;;;;;6.09;63.12;102720.28;5076821;28;20051;-84
2023/12/16 02:41:36;;;;;;;5.13;2.30;;;;;;;6.12;63.32;102716.25;5080137;28;20040;-84
2023/12/16 02:44:31;;;;;;;3.97;2.17;;;;;;;6.16;63.21;102720.94;5076527;28;20052;-84
2023/12/16 02:47:23;;;;;;;4.27;1.87;;;;;;;6.19;62.35;102717.78;5075800;28;20051;-84
2023/12/16 02:50:15;;;;;;;4.22;2.20;;;;;;;6.08;62.69;102715.09;5079986;28;20274;-84
2023/12/16 02:53:07;;;;;;;3.20;1.83;;;;;;;6.04;62.68;102711.22;5077536;28;20044;-84
2023/12/16 02:55:59;;;;;;;5.87;2.17;;;;;;;6.12;63.06;102711.69;5067610;28;20413;-84
2023/12/16 02:58:52;;;;;;;4.40;1.85;;;;;;;6.27;62.27;102727.41;5093010;28;20047;-84
2023/12/16 03:01:46;;;;;;;2.30;1.63;;;;;;;6.13;62.85;102726.84;5080064;28;20051;-84
2023/12/16 03:04:38;;;;;;;2.45;1.17;;;;;;;6.03;61.89;102736.56;5075597;28;20051;-83
2023/12/16 03:07:33;;;;;;;3.00;1.52;;;;;;;6.05;61.53;102737.16;5077531;28;20524;-82
2023/12/16 03:10:27;;;;;;;2.97;1.73;;;;;;;6.01;62.38;102737.63;5084068;28;20039;-84
2023/12/16 03:13:22;;;;;;;2.25;1.40;;;;;;;6.01;63.01;102751.13;5085614;28;20047;-83
2023/12/16 03:16:16;;;;;;;2.28;1.48;;;;;;;6.09;62.08;102743.75;5087054;28;20044;-83
2023/12/16 03:19:11;;;;;;;3.70;2.00;;;;;;;6.00;62.12;102752.19;5098872;28;20056;-81
2023/12/16 03:22:06;;;;;;;3.28;1.35;;;;;;;5.98;62.42;102758.88;5090208;28;20059;-80
2023/12/16 03:25:00;;;;;;;2.75;1.40;;;;;;;6.00;62.30;102754.06;5081584;28;20052;-83
2023/12/16 03:27:55;;;;;;;3.10;1.57;;;;;;;6.07;62.86;102759.34;5093088;28;20052;-83
2023/12/16 03:30:49;;;;;;;2.33;1.60;;;;;;;6.10;62.99;102758.88;5096279;28;20039;-82
2023/12/16 03:33:49;;;;;;;2.50;1.20;;;;;;;5.96;62.54;102763.69;5088515;28;20040;-82
2023/12/16 03:36:44;;;;;;;2.45;1.80;;;;;;;6.06;62.68;102752.31;5085697;28;20051;-82
2023/12/16 03:39:41;;;;;;;5.18;1.45;;;;;;;5.99;62.29;102750.53;5073421;28;20047;-83
2023/12/16 03:42:33;;;;;;;2.83;1.67;;;;;;;5.85;62.40;102741.00;5087611;28;20047;-84
2023/12/16 03:45:27;;;;;;;5.00;1.20;;;;;;;5.86;62.76;102748.03;5080222;28;20511;-82
2023/12/16 03:48:22;;;;;;;2.00;1.20;;;;;;;5.95;62.29;102743.97;5091069;28;20162;-83
2023/12/16 03:51:14;;;;;;;1.88;1.23;;;;;;;5.82;62.12;102736.06;5097476;28;20269;-83
2023/12/16 03:54:09;;;;;;;2.60;1.27;;;;;;;5.96;62.23;102737.50;5088647;28;20063;-83
2023/12/16 03:57:03;;;;;;;3.58;1.30;;;;;;;5.92;62.05;102744.44;5084567;28;20064;-82
2023/12/16 03:59:55;;;;;;;1.38;1.05;;;;;;;5.89;61.73;102742.19;5089618;28;20051;-82
2023/12/16 04:02:47;;;;;;;2.88;1.38;;;;;;;5.88;62.08;102737.88;5100073;28;20051;-82
2023/12/16 04:05:42;;;;;;;1.42;1.10;;;;;;;5.83;62.38;102739.59;5081411;28;20071;-82
2023/12/16 04:08:36;;;;;;;8.20;1.70;;;;;;;5.99;62.62;102739.72;5086832;28;20055;-82
2023/12/16 04:11:26;;;;;;;7.32;1.45;;;;;;;6.12;61.36;102754.06;5083225;28;20059;-83
2023/12/16 04:14:20;;;;;;;4.50;1.20;;;;;;;6.16;61.77;102755.25;5087313;28;20063;-83
2023/12/16 04:17:15;;;;;;;2.23;0.80;;;;;;;6.13;62.43;102756.53;5094516;28;20043;-84
2023/12/16 04:20:09;;;;;;;2.77;1.07;;;;;;;5.80;62.03;102754.38;5091844;28;20051;-85
2023/12/16 04:23:03;;;;;;;3.20;1.20;;;;;;;6.01;62.10;102761.94;5088457;28;20289;-85
2023/12/16 04:25:55;;;;;;;3.50;1.13;;;;;;;5.87;61.55;102768.63;5095186;28;20051;-85
2023/12/16 04:28:50;;;;;;;2.10;0.93;;;;;;;5.97;61.20;102781.53;5098050;28;20523;-85
2023/12/16 04:31:41;;;;;;;3.25;1.45;;;;;;;5.97;62.07;102770.75;5085809;28;20043;-83
2023/12/16 04:34:34;;;;;;;2.40;1.48;;;;;;;5.90;62.35;102775.41;5084339;28;20052;-83
2023/12/16 04:37:28;;;;;;;2.63;1.48;;;;;;;5.80;62.31;102783.25;5096045;28;20433;-83
2023/12/16 04:40:20;;;;;;;3.53;1.77;;;;;;;5.80;62.34;102786.75;5095425;28;20050;-83
2023/12/16 04:43:12;;;;;;;2.03;1.23;;;;;;;5.86;63.98;102790.41;5088221;28;20039;-84
2023/12/16 04:46:07;;;;;;;2.17;1.15;;;;;;;5.80;62.87;102794.88;5086989;28;20043;-84
2023/12/16 04:49:01;;;;;;;1.35;0.85;;;;;;;5.71;61.96;102804.34;5085876;28;20405;-84
2023/12/16 04:52:01;;;;;;;2.58;1.50;;;;;;;5.75;62.16;102805.53;5083911;28;20417;-84
2023/12/16 04:54:53;;;;;;;3.35;1.35;;;;;;;5.76;62.63;102803.66;5093019;28;20051;-83
2023/12/16 04:57:47;;;;;;;2.30;1.20;;;;;;;5.72;62.18;102810.59;5088179;28;20424;-84
2023/12/16 05:00:39;;;;;;;1.77;1.00;;;;;;;5.77;62.70;102814.22;5094584;28;20051;-84
2023/12/16 05:03:34;;;;;;;1.90;1.13;;;;;;;5.78;62.48;102815.06;5067557;28;20535;-84
2023/12/16 05:06:29;;;;;;;2.10;1.13;;;;;;;5.85;61.91;102810.34;5086739;28;20051;-85
2023/12/16 05:09:24;;;;;;;2.40;1.00;;;;;;;5.81;61.40;102818.09;5103249;28;20063;-85
2023/12/16 05:12:18;;;;;;;3.20;0.80;;;;;;;5.89;60.48;102827.78;5088841;28;20043;-84
2023/12/16 05:15:14;;;;;;;3.55;1.20;;;;;;;5.82;61.09;102830.56;5100121;28;20508;-83
2023/12/16 05:18:08;;;;;;;4.88;1.10;;;;;;;5.80;61.03;102829.13;5092316;28;20043;-84
2023/12/16 05:21:03;;;;;;;3.10;1.50;;;;;;;6.55;68.09;102842.88;5092351;28;20047;-83
2023/12/16 05:23:55;;;;;;;1.90;0.90;;;;;;;6.13;60.02;102847.56;5085579;28;20047;-84
2023/12/16 05:26:55;;;;;;;2.53;1.10;;;;;;;6.05;60.15;102846.00;5082632;28;20044;-85
2023/12/16 05:29:55;;;;;;;2.58;1.05;;;;;;;5.95;60.08;102843.88;5089884;28;20039;-83
2023/12/16 05:32:49;;;;;;;1.83;1.20;;;;;;;5.91;60.19;102849.97;5083762;28;20051;-84
2023/12/16 05:35:39;;;;;;;1.48;1.10;;;;;;;5.89;59.79;102858.28;5081588;28;20055;-84
2023/12/16 05:38:31;;;;;;;8.90;1.10;;;;;;;6.00;59.23;102852.09;5077826;28;20051;-84
2023/12/16 05:41:23;;;;;;;4.50;1.38;;;;;;;5.95;59.37;102862.78;5094037;28;20063;-85
2023/12/16 05:44:16;;;;;;;5.95;1.10;;;;;;;5.90;59.26;102862.66;5088473;28;20043;-85
2023/12/16 05:47:08;;;;;;;1.25;0.80;;;;;;;5.94;59.20;102868.44;5081288;28;20078;-84
2023/12/16 05:50:02;;;;;;;6.40;0.93;;;;;;;5.92;59.14;102871.34;5083889;28;20069;-81
2023/12/16 05:52:57;;;;;;;1.40;0.90;;;;;;;5.91;59.86;102869.69;5071641;28;20039;-82
2023/12/16 05:55:56;;;;;;;2.10;1.25;;;;;;;5.88;59.80;102863.94;5073351;28;20047;-81
2023/12/16 05:58:54;;;;;;;1.40;1.20;;;;;;;5.79;60.18;102866.09;5070644;28;20523;-81
2023/12/16 06:01:48;;;;;;;2.28;1.33;;;;;;;5.71;60.09;102861.03;5084282;28;20051;-81
2023/12/16 06:04:43;;;;;;;5.57;1.42;;;;;;;5.86;59.53;102856.03;5082717;28;20040;-81
2023/12/16 06:07:37;;;;;;;3.97;1.10;;;;;;;5.87;60.03;102867.69;5072109;28;20052;-80
2023/12/16 06:10:32;;;;;;;8.00;1.23;;;;;;;6.38;66.75;102869.78;5074859;28;20044;-80
2023/12/16 06:13:24;;;;;;;1.15;0.88;;;;;;;7.31;73.05;102869.66;5087933;28;20046;-81
2023/12/16 06:16:17;;;;;;;2.00;0.90;;;;;;;7.99;69.95;102866.03;5089465;28;20527;-81
2023/12/16 06:19:09;;;;;;;4.88;1.63;;;;;;;7.91;65.64;102871.84;5095450;28;20052;-80
2023/12/16 06:22:03;;;;;;;2.78;1.10;;;;;;;9.73;68.81;102885.28;5085443;28;20051;-81
2023/12/16 06:24:58;;;;;;;2.07;0.70;;;;;;;9.48;60.79;102885.00;5096962;28;20046;-79
2023/12/16 06:27:50;;;;;;;2.50;1.25;;;;;;;10.19;63.29;102894.72;5086887;28;20047;-80
2023/12/16 06:30:42;;;;;;;1.20;0.90;;;;;;;10.41;62.67;102891.91;5086963;28;20046;-81
2023/12/16 06:33:33;;;;;;;1.95;1.23;;;;;;;9.41;57.42;102888.72;5077410;28;20051;-81
2023/12/16 06:36:23;;;;;;;1.45;1.35;;;;;;;8.73;56.13;102891.94;5082944;28;20055;-81
2023/12/16 06:39:17;;;;;;;2.47;1.08;;;;;;;8.29;56.89;102881.97;5084147;28;20047;-80
2023/12/16 06:42:12;;;;;;;1.95;0.90;;;;;;;8.51;58.53;102891.88;5089712;28;20051;-79
2023/12/16 06:45:07;;;;;;;3.90;0.93;;;;;;;8.24;58.24;102896.25;5078585;28;20413;-81
2023/12/16 06:48:01;;;;;;;0.63;0.53;;;;;;;8.02;57.73;102898.06;5090019;28;20048;-83
2023/12/16 06:50:57;;;;;;;3.63;1.00;;;;;;;7.87;57.48;102903.22;5081474;28;20051;-79
2023/12/16 06:53:52;;;;;;;3.03;1.00;;;;;;;7.69;58.25;102906.94;5090939;28;20806;-81
2023/12/16 06:56:47;;;;;;;5.87;0.90;;;;;;;8.27;63.60;102911.22;5093847;28;20043;-81
2023/12/16 06:59:41;;;;;;;1.25;0.77;;;;;;;8.63;67.34;102915.34;5088246;28;20496;-83
2023/12/16 07:02:36;;;;;;;3.70;0.80;;;;;;;9.79;67.43;102930.44;5085173;28;20040;-81
2023/12/16 07:05:28;;;;;;;6.10;2.97;;;;;;;8.32;55.96;102923.00;5083125;28;20039;-82
2023/12/16 07:08:26;;;;;;;5.20;2.83;;;;;;;6.22;57.89;102921.78;5085372;28;20524;-78
2023/12/16 07:11:20;;;;;;;8.00;2.35;;;;;;;5.53;59.89;102924.00;5072360;28;20052;-77
2023/12/16 07:14:15;;;;;;;5.90;3.40;;;;;;;4.84;62.48;102923.53;5085534;28;20047;-78
2023/12/16 07:17:10;;;;;;;7.03;2.10;;;;;;;4.60;64.86;102931.44;5080960;28;20051;-79
2023/12/16 07:20:04;;;;;;;3.10;1.60;;;;;;;4.57;65.58;102931.84;5084437;28;20047;-79
2023/12/16 07:22:56;;;;;;;5.70;1.13;;;;;;;4.39;65.39;102939.06;5092840;28;20047;-78
2023/12/16 07:25:51;;;;;;;2.78;1.20;;;;;;;4.43;64.86;102945.66;5084048;28;20039;-78
2023/12/16 07:28:44;;;;;;;2.40;1.20;;;;;;;4.69;63.92;102956.22;5077912;28;20044;-77
2023/12/16 07:31:38;;;;;;;4.53;1.58;;;;;;;4.41;65.19;102963.91;5066247;28;20044;-77
2023/12/16 07:34:28;;;;;;;9.07;2.88;;;;;;;4.32;65.27;102967.94;5070895;28;20052;-78
2023/12/16 07:37:22;;;;;;;8.25;2.20;;;;;;;4.25;66.98;102984.13;5074342;28;20083;-77
2023/12/16 07:40:20;;;;;;;3.80;2.05;;;;;;;4.19;66.61;102980.41;5075419;28;20051;-78
2023/12/16 07:43:14;;;;;;;5.05;2.88;;;;;;;4.28;66.36;102989.88;5089013;28;20039;-77
2023/12/16 07:46:09;;;;;;;2.55;1.70;;;;;;;4.56;65.76;102994.06;5073921;28;20500;-79
2023/12/16 07:49:10;;;;;;;5.10;2.38;;;;;;;4.50;65.73;102989.53;5063433;28;20039;-77
2023/12/16 07:52:04;;;;;;;12.20;4.90;;;;;;;4.57;66.08;102998.41;5074578;28;20118;-77
2023/12/16 07:54:59;;;;;;;4.35;2.00;;;;;;;4.50;66.42;103003.84;5073974;28;20044;-80
2023/12/16 07:57:54;;;;;;;6.23;1.40;;;;;;;4.61;65.37;103008.53;5076562;28;20059;-78
2023/12/16 08:00:48;;;;;;;6.47;2.72;;;;;;;4.66;65.91;103010.56;5079335;28;20047;-78
2023/12/16 08:03:43;;;;;;;5.82;2.40;;;;;;;4.80;66.08;103014.78;5078149;28;20059;-78
2023/12/16 08:06:37;;;;;;;6.50;2.40;;;;;;;4.80;65.96;103013.97;5080243;28;20432;-77
2023/12/16 08:09:32;;;;;;;7.97;2.83;;;;;;;4.91;65.95;103010.56;5077613;28;20055;-78
2023/12/16 08:12:27;;;;;;;3.20;1.80;;;;;;;5.18;65.03;103020.84;5077366;28;20048;-78
2023/12/16 08:15:21;;;;;;;5.38;2.75;;;;;;;5.11;64.78;103028.19;5067082;28;20282;-80
2023/12/16 08:18:16;;;;;;;8.55;3.22;;;;;;;5.21;66.10;103030.38;5069549;28;20421;-80
2023/12/16 08:21:08;;;;;;;3.08;2.33;;;;;;;5.53;65.16;103039.19;5083578;28;20413;-77
2023/12/16 08:24:00;;;;;;;7.63;2.88;;;;;;;5.45;65.37;103036.78;5099351;28;20054;-77
2023/12/16 08:26:54;;;;;;;10.75;3.25;;;;;;;5.36;65.18;103032.72;5097775;28;20103;-77
2023/12/16 08:29:49;;;;;;;4.83;1.63;;;;;;;5.52;64.74;103038.38;5100669;28;20039;-78
2023/12/16 08:32:43;;;;;;;6.20;2.08;;;;;;;5.50;65.41;103031.53;5098469;28;20031;-78
2023/12/16 08:35:38;;;;;;;5.93;1.67;;;;;;;5.78;64.74;103048.03;5092768;28;20039;-78
2023/12/16 08:38:30;;;;;;;4.00;1.73;;;;;;;6.06;64.09;103054.78;5090041;28;20036;-78
2023/12/16 08:41:25;;;;;;;4.63;2.33;;;;;;;5.95;64.20;103057.19;5081543;28;20130;-78
2023/12/16 08:44:19;;;;;;;12.30;2.50;;;;;;;5.96;64.79;103061.53;5078909;28;20048;-78
2023/12/16 08:47:14;;;;;;;6.20;1.43;;;;;;;6.07;64.57;103067.25;5080130;28;20524;-78
2023/12/16 08:50:10;;;;;;;3.67;1.58;;;;;;;6.49;63.99;103073.53;5076364;28;20055;-78
2023/12/16 08:53:02;;;;;;;5.03;2.85;;;;;;;6.29;64.37;103074.63;5080274;28;20040;-78
2023/12/16 08:55:57;;;;;;;6.38;2.50;;;;;;;6.47;64.78;103072.94;5077825;28;20047;-78
2023/12/16 08:58:54;;;;;;;4.10;2.20;;;;;;;6.77;63.86;103079.13;5080617;28;20039;-78
2023/12/16 09:01:46;;;;;;;4.18;2.20;;;;;;;6.84;64.26;103075.28;5080815;28;20528;-78
2023/12/16 09:04:41;;;;;;;3.40;1.90;;;;;;;7.11;63.57;103081.06;5075922;28;20421;-77
2023/12/16 09:07:35;;;;;;;6.25;1.65;;;;;;;7.09;63.31;103091.31;5078562;28;20539;-78
2023/12/16 09:10:30;;;;;;;7.30;2.40;;;;;;;7.37;63.73;103089.78;5071598;28;20051;-78
2023/12/16 09:13:25;;;;;;;3.30;1.40;;;;;;;7.45;63.51;103087.56;5080099;28;20051;-77
2023/12/16 09:16:19;;;;;;;7.90;3.33;;;;;;;7.72;62.12;103096.00;5070866;28;20540;-78
2023/12/16 09:19:11;;;;;;;3.72;2.30;;;;;;;7.56;62.69;103094.88;5068406;28;20044;-78
2023/12/16 09:22:06;;;;;;;7.45;2.83;;;;;;;7.59;63.27;103091.66;5079573;28;20052;-78
2023/12/16 09:25:00;;;;;;;14.17;5.73;;;;;;;7.58;63.09;103098.13;5077087;28;20048;-78
2023/12/16 09:27:56;;;;;;;12.48;2.78;;;;;;;7.72;63.10;103102.25;5070452;28;20068;-78
2023/12/16 09:30:51;;;;;;;2.70;1.63;;;;;;;7.65;63.06;103103.44;5067945;28;20043;-78
2023/12/16 09:33:49;;;;;;;7.20;1.98;;;;;;;7.76;63.01;103112.63;5073209;28;20035;-78
2023/12/16 09:36:44;;;;;;;3.88;1.73;;;;;;;7.87;62.20;103111.78;5070571;28;20051;-77
2023/12/16 09:39:39;;;;;;;1.75;1.38;;;;;;;7.98;62.56;103110.91;5072096;28;20051;-78
2023/12/16 09:42:31;;;;;;;4.90;1.47;;;;;;;8.40;58.68;103111.53;5080252;28;20048;-78
2023/12/16 09:45:31;;;;;;;2.20;1.48;;;;;;;8.57;57.31;103102.41;5077933;28;20051;-78
2023/12/16 09:48:26;;;;;;;8.07;2.10;;;;;;;8.87;56.77;103106.72;5075097;28;20047;-78
2023/12/16 09:51:21;;;;;;;2.25;1.20;;;;;;;9.06;56.72;103110.00;5078979;28;20070;-78
2023/12/16 09:54:16;;;;;;;3.57;0.80;;;;;;;8.94;55.61;103112.78;5076544;28;20055;-78
2023/12/16 09:57:14;;;;;;;5.70;1.10;;;;;;;9.22;56.11;103104.59;5079134;28;20043;-77
2023/12/16 10:00:09;;;;;;;3.67;1.20;;;;;;;13.10;47.56;103118.09;5077356;28;20043;-79
2023/12/16 10:03:04;;;;;;;6.88;1.35;;;;;;;20.86;31.57;103106.13;5076098;28;20107;-78
2023/12/16 10:05:59;;;;;;;13.18;1.30;;;;;;;23.57;25.94;103117.34;5079424;28;20047;-79
2023/12/16 10:08:51;;;;;;;4.97;1.77;;;;;;;22.75;25.79;103105.31;5076296;28;20055;-81
2023/12/16 10:11:54;;;;;;;5.57;1.80;;;;;;;25.22;23.57;103117.25;5081242;28;20048;-78
2023/12/16 10:14:52;;;;;;;6.72;1.70;;;;;;;20.71;28.07;103106.63;5076204;28;20060;-79
2023/12/16 10:17:46;;;;;;;9.80;2.00;;;;;;;18.62;32.47;103096.97;5076606;28;20055;-78
2023/12/16 10:20:41;;;;;;;4.95;1.80;;;;;;;19.90;30.39;103095.28;5077501;28;20040;-77
2023/12/16 10:23:31;;;;;;;;;;;;;;;22.86;25.92;103111.22;5072160;28;20047;-78
2023/12/16 10:26:22;;;;;;;4.65;1.58;;;;;;;25.60;22.99;103110.31;5070848;28;19920;-78
2023/12/16 10:29:20;;;;;;;3.67;1.70;;;;;;;24.10;23.22;103116.31;5077705;28;20528;-77
2023/12/16 10:32:15;;;;;;;5.13;2.85;;;;;;;17.07;34.25;103106.09;5072804;28;20044;-77
2023/12/16 10:35:07;;;;;;;7.38;1.73;;;;;;;15.63;36.97;103100.41;5077021;28;20048;-78
2023/12/16 10:37:59;;;;;;;2.63;1.90;;;;;;;14.53;38.27;103093.63;5074443;28;20047;-80
2023/12/16 10:40:55;;;;;;;5.30;3.38;;;;;;;14.07;39.25;103093.03;5077429;28;20406;-76
2023/12/16 10:43:47;;;;;;;4.18;2.97;;;;;;;13.39;41.28;103088.31;5076077;28;20101;-77
2023/12/16 10:46:41;;;;;;;8.50;3.08;;;;;;;13.62;41.44;103093.19;5073084;28;20525;-77
2023/12/16 10:49:36;;;;;;;5.60;2.83;;;;;;;13.42;41.93;103080.38;5076583;28;20051;-77
2023/12/16 10:52:43;;;;;;;10.57;4.47;;;;;;;13.46;40.77;103084.19;5074030;28;20044;-77
2023/12/16 10:55:46;;;;;;;3.65;2.10;;;;;;;13.20;41.21;103077.97;5077211;28;20115;-77
2023/12/16 10:58:43;;;;;;;9.45;2.05;;;;;;;13.31;40.95;103067.03;5073333;28;20047;-77
2023/12/16 11:01:39;;;;;;;2.03;1.40;;;;;;;14.19;40.10;103076.28;5067334;28;20524;-78
2023/12/16 11:04:36;;;;;;;4.40;1.70;;;;;;;22.98;26.40;103086.28;5074691;28;20063;-77
2023/12/16 11:07:27;;;;;;;3.67;1.58;;;;;;;22.33;23.84;103084.25;5075989;28;20051;-79
2023/12/16 11:10:21;;;;;;;1.70;1.15;;;;;;;23.14;24.28;103081.72;5078121;28;20047;-80
2023/12/16 11:13:14;;;;;;;2.20;1.30;;;;;;;20.74;26.87;103079.13;5077767;28;20031;-80
2023/12/16 11:16:14;;;;;;;3.58;1.83;;;;;;;23.25;24.62;103079.31;5079991;28;20516;-80
2023/12/16 11:19:07;;;;;;;6.35;1.25;;;;;;;25.09;21.99;103096.22;5076575;28;20060;-80
2023/12/16 11:22:02;;;;;;;4.00;1.90;;;;;;;25.64;21.07;103084.13;5074038;28;20048;-79
2023/12/16 11:24:56;;;;;;;2.15;1.45;;;;;;;18.93;28.06;103074.16;5078971;28;20059;-79
2023/12/16 11:27:52;;;;;;;4.63;1.70;;;;;;;17.37;31.20;103079.19;5076558;28;20048;-79
2023/12/16 11:30:42;;;;;;;5.68;2.58;;;;;;;16.42;33.40;103090.59;5082055;28;20535;-79
2023/12/16 11:33:47;;;;;;;4.20;1.83;;;;;;;15.62;35.07;103093.28;5081680;28;20412;-79
2023/12/16 11:36:55;;;;;;;3.30;1.30;;;;;;;13.61;37.87;103086.91;5079245;28;20048;-79
2023/12/16 11:39:48;;;;;;;4.40;2.15;;;;;;;14.01;38.31;103082.41;5080630;28;20043;-79
2023/12/16 11:42:53;;;;;;;5.65;2.60;;;;;;;15.10;37.06;103083.06;5079882;28;20060;-79
2023/12/16 11:45:48;;;;;;;;;;;;;;;13.39;39.87;103067.28;5075519;28;20038;-80
2023/12/16 11:48:40;;;;;;;3.75;1.77;;;;;;;15.55;37.04;103068.94;5073222;28;19913;-79
2023/12/16 11:51:34;;;;;;;3.22;2.33;;;;;;;16.16;34.61;103066.25;5083574;28;20102;-79
2023/12/16 11:54:29;;;;;;;2.15;1.45;;;;;;;15.75;36.01;103056.91;5079016;28;20107;-79
2023/12/16 11:57:27;;;;;;;5.18;2.80;;;;;;;24.03;23.01;103065.22;5072482;28;20051;-79
2023/12/16 12:00:22;;;;;;;4.03;1.70;;;;;;;22.95;24.55;103064.78;5081528;28;20043;-79
2023/12/16 12:03:16;;;;;;;3.08;2.08;;;;;;;26.25;20.21;103059.28;5079676;28;20536;-79
2023/12/16 12:06:11;;;;;;;4.78;1.73;;;;;;;21.55;24.92;103062.50;5083111;28;20071;-80
2023/12/16 12:09:05;;;;;;;6.43;2.58;;;;;;;18.66;29.46;103050.28;5079449;28;20047;-80
2023/12/16 12:12:00;;;;;;;2.80;1.65;;;;;;;19.63;27.66;103044.69;5071229;28;20048;-80
2023/12/16 12:14:55;;;;;;;3.70;1.83;;;;;;;23.16;22.69;103043.31;5075092;28;20048;-79
2023/12/16 12:17:49;;;;;;;3.03;1.80;;;;;;;23.93;22.50;103049.00;5069510;28;20040;-80
2023/12/16 12:20:44;;;;;;;2.17;1.60;;;;;;;24.27;21.61;103054.91;5077424;28;20421;-80
2023/12/16 12:23:42;;;;;;;1.95;1.17;;;;;;;26.86;19.21;103061.31;5078412;28;20428;-81
2023/12/16 12:26:41;;;;;;;3.83;1.52;;;;;;;28.41;16.88;103049.03;5066216;28;20067;-81
2023/12/16 12:30:04;;;;;;;2.60;1.40;;;;;;;27.90;18.04;103047.91;5071741;28;20068;-81
2023/12/16 12:33:01;;;;;;;3.08;1.20;;;;;;;27.75;18.04;103032.13;5070793;28;20047;-81
2023/12/16 12:35:56;;;;;;;5.05;1.52;;;;;;;30.73;15.42;103042.00;5082960;28;20051;-83
2023/12/16 12:39:00;;;;;;;2.35;1.40;;;;;;;30.58;14.80;103049.59;5078308;28;20047;-82
2023/12/16 12:42:08;;;;;;;2.13;1.38;;;;;;;31.25;14.84;103042.50;5081127;28;20525;-82
2023/12/16 12:45:02;;;;;;;2.83;1.65;;;;;;;28.27;17.52;103026.47;5079183;28;20047;-83
2023/12/16 12:47:55;;;;;;;2.42;1.30;;;;;;;28.85;16.80;103034.38;5084076;28;20044;-84
2023/12/16 12:50:45;;;;;;;2.58;1.52;;;;;;;32.96;13.48;103032.28;5081151;28;20081;-83
2023/12/16 12:53:40;;;;;;;5.28;3.00;;;;;;;31.55;14.48;103026.00;5081186;28;20055;-83
2023/12/16 12:56:34;;;;;;;3.58;1.17;;;;;;;29.20;16.14;103017.06;5084978;28;20081;-81
2023/12/16 12:59:26;;;;;;;14.77;1.70;;;;;;;21.11;23.62;103025.03;5080559;28;20048;-83
2023/12/16 13:02:21;;;;;;;2.50;1.30;;;;;;;20.33;26.13;103012.47;5083354;28;20051;-81
2023/12/16 13:05:15;;;;;;;1.98;1.05;;;;;;;18.50;27.99;103013.16;5074179;28;20039;-81
2023/12/16 13:08:08;;;;;;;1.75;1.48;;;;;;;17.33;31.08;103014.88;5078660;28;20047;-82
2023/12/16 13:11:03;;;;;;;2.85;1.50;;;;;;;16.57;32.67;103022.53;5080407;28;20044;-80
2023/12/16 13:13:58;;;;;;;3.20;1.90;;;;;;;14.89;34.53;103017.47;5081796;28;20048;-81
2023/12/16 13:16:53;;;;;;;7.60;1.85;;;;;;;16.77;32.32;103021.41;5080631;28;20397;-83
2023/12/16 13:19:47;;;;;;;2.13;1.00;;;;;;;23.81;22.44;103014.53;5082154;28;20048;-83
2023/12/16 13:22:42;;;;;;;2.10;0.93;;;;;;;20.72;25.13;103005.94;5079356;28;20088;-83
2023/12/16 13:25:36;;;;;;;1.58;0.90;;;;;;;25.31;20.03;103014.00;5085140;28;20274;-83
2023/12/16 13:28:31;;;;;;;2.53;1.40;;;;;;;26.76;18.43;103018.06;5080940;28;20043;-83
2023/12/16 13:31:26;;;;;;;2.53;1.83;;;;;;;24.36;20.84;103007.47;5082177;28;20048;-83
2023/12/16 13:34:13;;;;;;;3.60;1.60;;;;;;;24.31;22.49;103010.50;5078039;28;20047;-83
2023/12/16 13:37:08;;;;;;;3.17;1.77;;;;;;;28.78;17.71;103017.47;5076310;28;20047;-80
2023/12/16 13:40:02;;;;;;;1.92;1.38;;;;;;;25.34;19.68;103024.44;5080434;28;20540;-84